sensor_id;sensor_type;location;lat;lon;timestamp;P1;durP1;ratioP1;P2;durP2;ratioP2
73650;SDS011;61944;52.538;6.108;2022-10-17T05:03:46;34.05;;;18.80;;
73650;SDS011;61944;52.538;6.108;2022-10-17T05:06:15;33.92;;;19.42;;
73650;SDS011;61944;52.538;6.108;2022-10-17T05:08:44;34.30;;;18.98;;
73650;SDS011;61944;52.538;6.108;2022-10-17T05:16:11;35.95;;;18.67;;
73650;SDS011;61944;52.538;6.108;2022-10-17T05:18:37;25.80;;;14.80;;
73650;SDS011;61944;52.538;6.108;2022-10-17T05:21:02;29.23;;;17.65;;
73650;SDS011;61944;52.538;6.108;2022-10-17T05:23:28;33.08;;;19.88;;
73650;SDS011;61944;52.538;6.108;2022-10-17T05:25:54;35.67;;;19.55;;
73650;SDS011;61944;52.538;6.108;2022-10-17T05:28:20;34.65;;;18.73;;
73650;SDS011;61944;52.538;6.108;2022-10-17T05:30:46;35.78;;;19.13;;
73650;SDS011;61944;52.538;6.108;2022-10-17T05:33:11;31.05;;;18.67;;
73650;SDS011;61944;52.538;6.108;2022-10-17T05:35:36;36.80;;;19.77;;
73650;SDS011;61944;52.538;6.108;2022-10-17T05:38:02;31.10;;;18.23;;
73650;SDS011;61944;52.538;6.108;2022-10-17T05:40:27;35.22;;;18.75;;
73650;SDS011;61944;52.538;6.108;2022-10-17T05:42:52;24.20;;;16.40;;
73650;SDS011;61944;52.538;6.108;2022-10-17T05:45:18;32.22;;;17.90;;
73650;SDS011;61944;52.538;6.108;2022-10-17T05:47:43;27.73;;;16.10;;
73650;SDS011;61944;52.538;6.108;2022-10-17T05:50:09;26.52;;;15.98;;
73650;SDS011;61944;52.538;6.108;2022-10-17T05:52:34;26.88;;;15.60;;
73650;SDS011;61944;52.538;6.108;2022-10-17T05:55:00;32.17;;;17.92;;
73650;SDS011;61944;52.538;6.108;2022-10-17T05:57:26;29.92;;;16.83;;
73650;SDS011;61944;52.538;6.108;2022-10-17T05:59:51;31.75;;;17.33;;
73650;SDS011;61944;52.538;6.108;2022-10-17T06:02:17;27.85;;;17.40;;
73650;SDS011;61944;52.538;6.108;2022-10-17T06:04:42;25.58;;;17.40;;
73650;SDS011;61944;52.538;6.108;2022-10-17T06:07:10;31.65;;;17.83;;
73650;SDS011;61944;52.538;6.108;2022-10-17T06:09:39;30.05;;;17.77;;
73650;SDS011;61944;52.538;6.108;2022-10-17T06:12:04;23.23;;;14.45;;
73650;SDS011;61944;52.538;6.108;2022-10-17T06:14:30;30.67;;;16.55;;
73650;SDS011;61944;52.538;6.108;2022-10-17T06:16:55;26.58;;;14.35;;
73650;SDS011;61944;52.538;6.108;2022-10-17T06:19:20;26.63;;;15.15;;
73650;SDS011;61944;52.538;6.108;2022-10-17T06:21:46;28.48;;;17.58;;
73650;SDS011;61944;52.538;6.108;2022-10-17T06:24:11;24.23;;;13.35;;
73650;SDS011;61944;52.538;6.108;2022-10-17T06:26:37;31.42;;;16.95;;
73650;SDS011;61944;52.538;6.108;2022-10-17T06:29:02;25.55;;;15.85;;
73650;SDS011;61944;52.538;6.108;2022-10-17T06:31:28;25.70;;;16.08;;
73650;SDS011;61944;52.538;6.108;2022-10-17T06:33:53;32.60;;;17.10;;
73650;SDS011;61944;52.538;6.108;2022-10-17T06:36:18;26.63;;;15.40;;
73650;SDS011;61944;52.538;6.108;2022-10-17T06:38:44;23.05;;;13.35;;
73650;SDS011;61944;52.538;6.108;2022-10-17T06:41:11;23.10;;;13.82;;
73650;SDS011;61944;52.538;6.108;2022-10-17T06:43:38;22.23;;;14.07;;
73650;SDS011;61944;52.538;6.108;2022-10-17T06:46:07;30.67;;;15.57;;
73650;SDS011;61944;52.538;6.108;2022-10-17T06:48:33;29.35;;;16.13;;
73650;SDS011;61944;52.538;6.108;2022-10-17T06:51:01;28.75;;;14.40;;
73650;SDS011;61944;52.538;6.108;2022-10-17T06:53:29;24.90;;;15.10;;
73650;SDS011;61944;52.538;6.108;2022-10-17T06:55:56;22.27;;;14.45;;
73650;SDS011;61944;52.538;6.108;2022-10-17T06:58:27;27.90;;;15.18;;
73650;SDS011;61944;52.538;6.108;2022-10-17T07:01:00;27.30;;;14.70;;
73650;SDS011;61944;52.538;6.108;2022-10-17T07:03:27;27.77;;;14.68;;
73650;SDS011;61944;52.538;6.108;2022-10-17T07:05:54;32.83;;;15.95;;
73650;SDS011;61944;52.538;6.108;2022-10-17T07:08:20;31.23;;;15.27;;
73650;SDS011;61944;52.538;6.108;2022-10-17T07:10:48;25.17;;;14.75;;
73650;SDS011;61944;52.538;6.108;2022-10-17T07:13:13;24.85;;;14.43;;
73650;SDS011;61944;52.538;6.108;2022-10-17T07:15:39;22.95;;;13.77;;
73650;SDS011;61944;52.538;6.108;2022-10-17T07:18:05;18.05;;;11.77;;
73650;SDS011;61944;52.538;6.108;2022-10-17T07:20:30;25.50;;;14.23;;
73650;SDS011;61944;52.538;6.108;2022-10-17T07:22:56;24.52;;;13.98;;
73650;SDS011;61944;52.538;6.108;2022-10-17T07:25:21;25.40;;;15.52;;
73650;SDS011;61944;52.538;6.108;2022-10-17T07:27:48;21.98;;;13.30;;
73650;SDS011;61944;52.538;6.108;2022-10-17T07:30:17;26.52;;;13.65;;
73650;SDS011;61944;52.538;6.108;2022-10-17T07:32:43;22.95;;;14.18;;
73650;SDS011;61944;52.538;6.108;2022-10-17T07:35:09;27.60;;;13.73;;
73650;SDS011;61944;52.538;6.108;2022-10-17T07:37:35;20.02;;;13.75;;
73650;SDS011;61944;52.538;6.108;2022-10-17T07:40:01;23.00;;;13.98;;
73650;SDS011;61944;52.538;6.108;2022-10-17T07:42:26;20.83;;;12.57;;
73650;SDS011;61944;52.538;6.108;2022-10-17T07:44:52;26.15;;;14.50;;
73650;SDS011;61944;52.538;6.108;2022-10-17T07:47:18;24.77;;;15.00;;
73650;SDS011;61944;52.538;6.108;2022-10-17T07:49:44;22.92;;;12.85;;
73650;SDS011;61944;52.538;6.108;2022-10-17T07:52:09;24.13;;;13.02;;
73650;SDS011;61944;52.538;6.108;2022-10-17T07:54:35;25.42;;;13.13;;
73650;SDS011;61944;52.538;6.108;2022-10-17T07:57:01;19.38;;;12.65;;
73650;SDS011;61944;52.538;6.108;2022-10-17T07:59:27;22.20;;;13.50;;
73650;SDS011;61944;52.538;6.108;2022-10-17T08:01:55;19.52;;;11.98;;
73650;SDS011;61944;52.538;6.108;2022-10-17T08:04:20;18.27;;;13.00;;
73650;SDS011;61944;52.538;6.108;2022-10-17T08:06:46;25.45;;;13.48;;
73650;SDS011;61944;52.538;6.108;2022-10-17T08:09:11;22.30;;;13.35;;
73650;SDS011;61944;52.538;6.108;2022-10-17T08:11:37;23.00;;;15.23;;
73650;SDS011;61944;52.538;6.108;2022-10-17T08:14:02;23.42;;;14.30;;
73650;SDS011;61944;52.538;6.108;2022-10-17T08:16:28;27.95;;;13.80;;
73650;SDS011;61944;52.538;6.108;2022-10-17T08:18:53;23.00;;;12.93;;
73650;SDS011;61944;52.538;6.108;2022-10-17T08:21:18;23.23;;;14.20;;
73650;SDS011;61944;52.538;6.108;2022-10-17T08:23:44;22.67;;;13.70;;
73650;SDS011;61944;52.538;6.108;2022-10-17T08:26:09;19.10;;;11.48;;
73650;SDS011;61944;52.538;6.108;2022-10-17T08:28:37;19.38;;;12.68;;
73650;SDS011;61944;52.538;6.108;2022-10-17T08:31:11;21.73;;;13.07;;
73650;SDS011;61944;52.538;6.108;2022-10-17T08:33:38;23.60;;;14.60;;
73650;SDS011;61944;52.538;6.108;2022-10-17T08:36:05;18.60;;;12.15;;
73650;SDS011;61944;52.538;6.108;2022-10-17T08:38:31;24.67;;;14.63;;
73650;SDS011;61944;52.538;6.108;2022-10-17T08:41:03;22.02;;;13.05;;
73650;SDS011;61944;52.538;6.108;2022-10-17T08:43:38;24.27;;;13.60;;
73650;SDS011;61944;52.538;6.108;2022-10-17T08:46:11;21.58;;;13.50;;
73650;SDS011;61944;52.538;6.108;2022-10-17T08:48:39;23.40;;;14.00;;
73650;SDS011;61944;52.538;6.108;2022-10-17T08:51:18;23.25;;;14.30;;
73650;SDS011;61944;52.538;6.108;2022-10-17T08:54:10;24.73;;;14.93;;
73650;SDS011;61944;52.538;6.108;2022-10-17T08:56:44;27.92;;;14.00;;
73650;SDS011;61944;52.538;6.108;2022-10-17T08:59:13;20.90;;;13.32;;
73650;SDS011;61944;52.538;6.108;2022-10-17T09:01:48;24.17;;;13.68;;
73650;SDS011;61944;52.538;6.108;2022-10-17T09:07:18;25.95;;;14.35;;
73650;SDS011;61944;52.538;6.108;2022-10-17T09:15:44;22.48;;;14.02;;
73650;SDS011;61944;52.538;6.108;2022-10-17T09:18:25;23.13;;;13.82;;
73650;SDS011;61944;52.538;6.108;2022-10-17T09:20:56;29.05;;;16.17;;
73650;SDS011;61944;52.538;6.108;2022-10-17T09:23:47;21.35;;;13.30;;
73650;SDS011;61944;52.538;6.108;2022-10-17T09:26:20;27.75;;;16.08;;
73650;SDS011;61944;52.538;6.108;2022-10-17T09:28:54;24.95;;;13.40;;
73650;SDS011;61944;52.538;6.108;2022-10-17T09:31:29;19.45;;;11.23;;
73650;SDS011;61944;52.538;6.108;2022-10-17T09:34:00;19.23;;;12.23;;
73650;SDS011;61944;52.538;6.108;2022-10-17T09:36:33;22.25;;;14.15;;
73650;SDS011;61944;52.538;6.108;2022-10-17T09:39:12;24.00;;;14.23;;
73650;SDS011;61944;52.538;6.108;2022-10-17T09:41:41;28.02;;;14.48;;
73650;SDS011;61944;52.538;6.108;2022-10-17T09:44:11;26.77;;;16.73;;
73650;SDS011;61944;52.538;6.108;2022-10-17T09:46:40;24.25;;;14.70;;
73650;SDS011;61944;52.538;6.108;2022-10-17T09:49:17;27.88;;;16.38;;
73650;SDS011;61944;52.538;6.108;2022-10-17T09:51:46;34.00;;;18.05;;
73650;SDS011;61944;52.538;6.108;2022-10-17T09:54:19;32.40;;;17.15;;
73650;SDS011;61944;52.538;6.108;2022-10-17T09:57:01;29.05;;;17.52;;
73650;SDS011;61944;52.538;6.108;2022-10-17T10:00:03;31.02;;;16.35;;
73650;SDS011;61944;52.538;6.108;2022-10-17T10:02:23;30.90;;;17.73;;
73650;SDS011;61944;52.538;6.108;2022-10-17T10:07:16;32.55;;;16.45;;
73650;SDS011;61944;52.538;6.108;2022-10-17T10:09:45;28.00;;;16.92;;
73650;SDS011;61944;52.538;6.108;2022-10-17T10:12:19;30.88;;;16.55;;
73650;SDS011;61944;52.538;6.108;2022-10-17T10:14:46;32.05;;;17.08;;
73650;SDS011;61944;52.538;6.108;2022-10-17T10:17:32;26.17;;;15.68;;
73650;SDS011;61944;52.538;6.108;2022-10-17T10:20:00;34.72;;;16.23;;
73650;SDS011;61944;52.538;6.108;2022-10-17T10:22:27;33.15;;;15.75;;
73650;SDS011;61944;52.538;6.108;2022-10-17T10:25:06;36.00;;;17.55;;
73650;SDS011;61944;52.538;6.108;2022-10-17T10:27:31;28.20;;;16.50;;
73650;SDS011;61944;52.538;6.108;2022-10-17T10:29:57;32.08;;;16.48;;
73650;SDS011;61944;52.538;6.108;2022-10-17T10:32:27;35.55;;;18.60;;
73650;SDS011;61944;52.538;6.108;2022-10-17T10:34:58;37.78;;;17.17;;
73650;SDS011;61944;52.538;6.108;2022-10-17T10:37:28;35.65;;;18.17;;
73650;SDS011;61944;52.538;6.108;2022-10-17T10:39:58;32.80;;;16.60;;
73650;SDS011;61944;52.538;6.108;2022-10-17T10:42:36;31.73;;;17.70;;
73650;SDS011;61944;52.538;6.108;2022-10-17T10:50:19;32.08;;;18.85;;
73650;SDS011;61944;52.538;6.108;2022-10-17T10:55:57;33.45;;;16.63;;
73650;SDS011;61944;52.538;6.108;2022-10-17T10:58:42;32.17;;;17.80;;
73650;SDS011;61944;52.538;6.108;2022-10-17T11:01:45;32.03;;;17.98;;
73650;SDS011;61944;52.538;6.108;2022-10-17T11:06:47;34.70;;;17.23;;
73650;SDS011;61944;52.538;6.108;2022-10-17T11:11:51;28.40;;;19.27;;
73650;SDS011;61944;52.538;6.108;2022-10-17T11:17:09;32.85;;;17.13;;
73650;SDS011;61944;52.538;6.108;2022-10-17T11:19:51;31.30;;;16.55;;
73650;SDS011;61944;52.538;6.108;2022-10-17T11:22:31;29.00;;;16.63;;
73650;SDS011;61944;52.538;6.108;2022-10-17T11:25:05;30.05;;;16.70;;
73650;SDS011;61944;52.538;6.108;2022-10-17T11:27:43;27.60;;;16.48;;
73650;SDS011;61944;52.538;6.108;2022-10-17T11:30:11;31.98;;;17.63;;
73650;SDS011;61944;52.538;6.108;2022-10-17T11:32:41;30.77;;;16.52;;
73650;SDS011;61944;52.538;6.108;2022-10-17T11:40:50;27.40;;;15.98;;
73650;SDS011;61944;52.538;6.108;2022-10-17T11:43:30;25.35;;;14.13;;
73650;SDS011;61944;52.538;6.108;2022-10-17T11:46:00;24.23;;;14.95;;
73650;SDS011;61944;52.538;6.108;2022-10-17T11:51:07;22.83;;;13.52;;
73650;SDS011;61944;52.538;6.108;2022-10-17T11:53:43;24.95;;;15.30;;
73650;SDS011;61944;52.538;6.108;2022-10-17T11:56:13;23.40;;;13.55;;
73650;SDS011;61944;52.538;6.108;2022-10-17T11:58:46;21.27;;;13.77;;
73650;SDS011;61944;52.538;6.108;2022-10-17T12:01:39;21.67;;;13.93;;
73650;SDS011;61944;52.538;6.108;2022-10-17T12:04:36;26.50;;;15.20;;
73650;SDS011;61944;52.538;6.108;2022-10-17T12:07:21;21.48;;;14.02;;
73650;SDS011;61944;52.538;6.108;2022-10-17T12:10:02;17.63;;;12.20;;
73650;SDS011;61944;52.538;6.108;2022-10-17T12:12:38;20.63;;;12.98;;
73650;SDS011;61944;52.538;6.108;2022-10-17T12:17:36;20.40;;;12.55;;
73650;SDS011;61944;52.538;6.108;2022-10-17T12:22:52;16.00;;;10.73;;
73650;SDS011;61944;52.538;6.108;2022-10-17T12:25:26;19.65;;;11.80;;
73650;SDS011;61944;52.538;6.108;2022-10-17T12:28:27;17.95;;;10.75;;
73650;SDS011;61944;52.538;6.108;2022-10-17T12:30:53;20.48;;;11.38;;
73650;SDS011;61944;52.538;6.108;2022-10-17T12:46:50;16.60;;;10.50;;
73650;SDS011;61944;52.538;6.108;2022-10-17T12:52:15;18.60;;;10.18;;
73650;SDS011;61944;52.538;6.108;2022-10-17T12:54:44;15.85;;;10.38;;
73650;SDS011;61944;52.538;6.108;2022-10-17T12:57:16;18.17;;;10.15;;
73650;SDS011;61944;52.538;6.108;2022-10-17T12:59:49;17.65;;;11.45;;
73650;SDS011;61944;52.538;6.108;2022-10-17T13:02:18;15.82;;;10.02;;
73650;SDS011;61944;52.538;6.108;2022-10-17T13:04:46;16.13;;;10.48;;
73650;SDS011;61944;52.538;6.108;2022-10-17T13:07:17;22.88;;;11.35;;
73650;SDS011;61944;52.538;6.108;2022-10-17T13:09:45;12.82;;;9.00;;
73650;SDS011;61944;52.538;6.108;2022-10-17T13:12:12;18.92;;;11.40;;
73650;SDS011;61944;52.538;6.108;2022-10-17T13:14:42;13.68;;;8.90;;
73650;SDS011;61944;52.538;6.108;2022-10-17T13:17:27;11.15;;;8.07;;
73650;SDS011;61944;52.538;6.108;2022-10-17T13:19:54;10.52;;;6.18;;
73650;SDS011;61944;52.538;6.108;2022-10-17T13:22:22;6.53;;;4.10;;
73650;SDS011;61944;52.538;6.108;2022-10-17T13:24:50;7.93;;;4.13;;
73650;SDS011;61944;52.538;6.108;2022-10-17T13:27:35;8.18;;;3.92;;
73650;SDS011;61944;52.538;6.108;2022-10-17T13:30:01;5.53;;;3.72;;
73650;SDS011;61944;52.538;6.108;2022-10-17T13:32:45;4.05;;;2.85;;
73650;SDS011;61944;52.538;6.108;2022-10-17T13:35:11;6.20;;;3.65;;
73650;SDS011;61944;52.538;6.108;2022-10-17T13:37:39;8.43;;;3.42;;
73650;SDS011;61944;52.538;6.108;2022-10-17T13:40:06;6.68;;;2.60;;
73650;SDS011;61944;52.538;6.108;2022-10-17T13:42:39;3.60;;;2.78;;
73650;SDS011;61944;52.538;6.108;2022-10-17T13:45:38;5.63;;;3.13;;
73650;SDS011;61944;52.538;6.108;2022-10-17T13:50:32;3.80;;;2.47;;
73650;SDS011;61944;52.538;6.108;2022-10-17T13:53:13;4.45;;;2.33;;
73650;SDS011;61944;52.538;6.108;2022-10-17T13:55:54;4.72;;;2.60;;
73650;SDS011;61944;52.538;6.108;2022-10-17T13:58:30;5.20;;;2.80;;
73650;SDS011;61944;52.538;6.108;2022-10-17T14:01:15;3.95;;;2.50;;
73650;SDS011;61944;52.538;6.108;2022-10-17T14:03:45;5.00;;;2.55;;
73650;SDS011;61944;52.538;6.108;2022-10-17T14:06:12;4.47;;;2.50;;
73650;SDS011;61944;52.538;6.108;2022-10-17T14:11:34;5.03;;;2.75;;
73650;SDS011;61944;52.538;6.108;2022-10-17T14:14:03;4.65;;;4.00;;
73650;SDS011;61944;52.538;6.108;2022-10-17T14:16:35;5.93;;;2.72;;
73650;SDS011;61944;52.538;6.108;2022-10-17T14:19:04;4.13;;;2.40;;
73650;SDS011;61944;52.538;6.108;2022-10-17T14:21:39;5.07;;;2.67;;
73650;SDS011;61944;52.538;6.108;2022-10-17T14:31:49;7.05;;;2.95;;
73650;SDS011;61944;52.538;6.108;2022-10-17T14:34:23;4.22;;;3.47;;
73650;SDS011;61944;52.538;6.108;2022-10-17T14:36:53;5.55;;;3.38;;
73650;SDS011;61944;52.538;6.108;2022-10-17T14:39:21;4.10;;;2.97;;
73650;SDS011;61944;52.538;6.108;2022-10-17T14:41:49;5.35;;;4.07;;
73650;SDS011;61944;52.538;6.108;2022-10-17T14:44:20;6.47;;;3.80;;
73650;SDS011;61944;52.538;6.108;2022-10-17T14:46:49;5.00;;;3.42;;
73650;SDS011;61944;52.538;6.108;2022-10-17T14:49:35;6.00;;;4.60;;
73650;SDS011;61944;52.538;6.108;2022-10-17T14:52:09;5.97;;;4.57;;
73650;SDS011;61944;52.538;6.108;2022-10-17T14:54:44;7.85;;;4.10;;
73650;SDS011;61944;52.538;6.108;2022-10-17T14:57:16;9.93;;;5.60;;
73650;SDS011;61944;52.538;6.108;2022-10-17T14:59:54;10.13;;;6.70;;
73650;SDS011;61944;52.538;6.108;2022-10-17T15:02:20;72.85;;;39.72;;
73650;SDS011;61944;52.538;6.108;2022-10-17T15:04:45;61.75;;;36.97;;
73650;SDS011;61944;52.538;6.108;2022-10-17T15:07:14;42.78;;;28.60;;
73650;SDS011;61944;52.538;6.108;2022-10-17T15:09:41;60.42;;;48.25;;
73650;SDS011;61944;52.538;6.108;2022-10-17T15:12:17;35.65;;;27.92;;
73650;SDS011;61944;52.538;6.108;2022-10-17T15:14:45;17.33;;;12.90;;
73650;SDS011;61944;52.538;6.108;2022-10-17T15:17:29;12.30;;;9.02;;
73650;SDS011;61944;52.538;6.108;2022-10-17T15:19:55;13.20;;;9.15;;
73650;SDS011;61944;52.538;6.108;2022-10-17T15:22:21;12.80;;;8.70;;
73650;SDS011;61944;52.538;6.108;2022-10-17T15:24:47;11.82;;;8.05;;
73650;SDS011;61944;52.538;6.108;2022-10-17T15:27:16;11.15;;;7.15;;
73650;SDS011;61944;52.538;6.108;2022-10-17T15:29:43;9.90;;;8.07;;
73650;SDS011;61944;52.538;6.108;2022-10-17T15:32:09;12.20;;;10.00;;
73650;SDS011;61944;52.538;6.108;2022-10-17T15:34:35;12.73;;;9.82;;
73650;SDS011;61944;52.538;6.108;2022-10-17T15:37:01;10.52;;;7.97;;
73650;SDS011;61944;52.538;6.108;2022-10-17T15:39:28;10.70;;;8.52;;
73650;SDS011;61944;52.538;6.108;2022-10-17T15:41:54;14.10;;;8.07;;
73650;SDS011;61944;52.538;6.108;2022-10-17T15:44:19;10.90;;;8.05;;
73650;SDS011;61944;52.538;6.108;2022-10-17T15:46:44;14.88;;;8.75;;
73650;SDS011;61944;52.538;6.108;2022-10-17T15:49:11;13.10;;;8.60;;
73650;SDS011;61944;52.538;6.108;2022-10-17T15:51:37;15.30;;;9.48;;
73650;SDS011;61944;52.538;6.108;2022-10-17T15:54:03;18.88;;;8.95;;
73650;SDS011;61944;52.538;6.108;2022-10-17T15:56:37;12.85;;;9.77;;
73650;SDS011;61944;52.538;6.108;2022-10-17T15:59:11;13.70;;;10.15;;
73650;SDS011;61944;52.538;6.108;2022-10-17T16:01:39;16.33;;;9.90;;
73650;SDS011;61944;52.538;6.108;2022-10-17T16:04:05;17.83;;;10.75;;
73650;SDS011;61944;52.538;6.108;2022-10-17T16:06:30;17.52;;;10.73;;
73650;SDS011;61944;52.538;6.108;2022-10-17T16:08:56;12.18;;;8.68;;
73650;SDS011;61944;52.538;6.108;2022-10-17T16:11:29;13.20;;;8.88;;
73650;SDS011;61944;52.538;6.108;2022-10-17T16:13:58;14.45;;;11.45;;
73650;SDS011;61944;52.538;6.108;2022-10-17T16:16:25;18.40;;;10.52;;
73650;SDS011;61944;52.538;6.108;2022-10-17T16:18:51;11.57;;;9.00;;
73650;SDS011;61944;52.538;6.108;2022-10-17T16:21:16;13.30;;;9.48;;
73650;SDS011;61944;52.538;6.108;2022-10-17T16:23:44;16.60;;;10.68;;
73650;SDS011;61944;52.538;6.108;2022-10-17T16:26:10;11.45;;;8.68;;
73650;SDS011;61944;52.538;6.108;2022-10-17T16:28:38;14.32;;;10.68;;
73650;SDS011;61944;52.538;6.108;2022-10-17T16:31:04;15.65;;;9.30;;
73650;SDS011;61944;52.538;6.108;2022-10-17T16:33:38;8.77;;;6.85;;
73650;SDS011;61944;52.538;6.108;2022-10-17T16:36:03;9.82;;;8.02;;
73650;SDS011;61944;52.538;6.108;2022-10-17T16:38:28;18.42;;;10.25;;
73650;SDS011;61944;52.538;6.108;2022-10-17T16:40:54;13.77;;;9.65;;
73650;SDS011;61944;52.538;6.108;2022-10-17T16:43:19;10.57;;;6.75;;
73650;SDS011;61944;52.538;6.108;2022-10-17T16:45:44;14.20;;;8.88;;
73650;SDS011;61944;52.538;6.108;2022-10-17T16:48:09;9.93;;;8.10;;
73650;SDS011;61944;52.538;6.108;2022-10-17T16:50:37;13.63;;;8.48;;
73650;SDS011;61944;52.538;6.108;2022-10-17T16:53:03;17.08;;;12.13;;
73650;SDS011;61944;52.538;6.108;2022-10-17T16:55:28;19.42;;;15.20;;
73650;SDS011;61944;52.538;6.108;2022-10-17T16:57:54;26.45;;;23.77;;
73650;SDS011;61944;52.538;6.108;2022-10-17T17:00:19;15.10;;;11.65;;
73650;SDS011;61944;52.538;6.108;2022-10-17T17:02:47;20.33;;;15.57;;
73650;SDS011;61944;52.538;6.108;2022-10-17T17:05:12;21.70;;;14.85;;
73650;SDS011;61944;52.538;6.108;2022-10-17T17:07:38;22.30;;;15.05;;
73650;SDS011;61944;52.538;6.108;2022-10-17T17:10:04;26.60;;;19.90;;
73650;SDS011;61944;52.538;6.108;2022-10-17T17:12:33;24.55;;;20.35;;
73650;SDS011;61944;52.538;6.108;2022-10-17T17:14:59;21.33;;;16.02;;
73650;SDS011;61944;52.538;6.108;2022-10-17T17:17:25;19.98;;;15.00;;
73650;SDS011;61944;52.538;6.108;2022-10-17T17:19:50;15.55;;;12.73;;
73650;SDS011;61944;52.538;6.108;2022-10-17T17:22:15;19.50;;;13.63;;
73650;SDS011;61944;52.538;6.108;2022-10-17T17:24:40;62.50;;;34.90;;
73650;SDS011;61944;52.538;6.108;2022-10-17T17:27:06;41.08;;;30.00;;
73650;SDS011;61944;52.538;6.108;2022-10-17T17:29:31;21.70;;;16.38;;
73650;SDS011;61944;52.538;6.108;2022-10-17T17:31:56;22.92;;;15.40;;
73650;SDS011;61944;52.538;6.108;2022-10-17T17:34:22;21.52;;;15.63;;
73650;SDS011;61944;52.538;6.108;2022-10-17T17:36:47;23.42;;;15.60;;
73650;SDS011;61944;52.538;6.108;2022-10-17T17:39:13;20.08;;;16.10;;
73650;SDS011;61944;52.538;6.108;2022-10-17T17:41:40;16.48;;;13.85;;
73650;SDS011;61944;52.538;6.108;2022-10-17T17:44:06;22.20;;;15.35;;
73650;SDS011;61944;52.538;6.108;2022-10-17T17:46:33;24.38;;;15.75;;
73650;SDS011;61944;52.538;6.108;2022-10-17T17:48:59;25.30;;;16.70;;
73650;SDS011;61944;52.538;6.108;2022-10-17T17:51:25;28.23;;;15.35;;
73650;SDS011;61944;52.538;6.108;2022-10-17T17:53:52;22.95;;;15.10;;
73650;SDS011;61944;52.538;6.108;2022-10-17T17:56:20;20.98;;;16.00;;
73650;SDS011;61944;52.538;6.108;2022-10-17T17:58:51;22.40;;;14.35;;
73650;SDS011;61944;52.538;6.108;2022-10-17T18:01:22;30.75;;;20.60;;
73650;SDS011;61944;52.538;6.108;2022-10-17T18:03:50;35.60;;;26.52;;
73650;SDS011;61944;52.538;6.108;2022-10-17T18:06:16;24.83;;;18.02;;
73650;SDS011;61944;52.538;6.108;2022-10-17T18:08:43;27.75;;;20.08;;
73650;SDS011;61944;52.538;6.108;2022-10-17T18:11:12;22.73;;;18.60;;
73650;SDS011;61944;52.538;6.108;2022-10-17T18:13:38;36.70;;;24.27;;
73650;SDS011;61944;52.538;6.108;2022-10-17T18:16:03;34.70;;;26.73;;
73650;SDS011;61944;52.538;6.108;2022-10-17T18:18:37;27.08;;;20.55;;
73650;SDS011;61944;52.538;6.108;2022-10-17T18:21:03;26.85;;;19.98;;
73650;SDS011;61944;52.538;6.108;2022-10-17T18:23:29;28.95;;;19.80;;
73650;SDS011;61944;52.538;6.108;2022-10-17T18:25:55;23.73;;;17.00;;
73650;SDS011;61944;52.538;6.108;2022-10-17T18:28:22;33.40;;;19.70;;
73650;SDS011;61944;52.538;6.108;2022-10-17T18:30:48;27.27;;;19.50;;
73650;SDS011;61944;52.538;6.108;2022-10-17T18:33:13;30.17;;;19.33;;
73650;SDS011;61944;52.538;6.108;2022-10-17T18:35:39;37.65;;;25.00;;
73650;SDS011;61944;52.538;6.108;2022-10-17T18:38:04;33.80;;;19.00;;
73650;SDS011;61944;52.538;6.108;2022-10-17T18:40:29;40.33;;;27.23;;
73650;SDS011;61944;52.538;6.108;2022-10-17T18:42:55;32.85;;;21.13;;
73650;SDS011;61944;52.538;6.108;2022-10-17T18:45:20;30.23;;;20.73;;
73650;SDS011;61944;52.538;6.108;2022-10-17T18:47:46;29.05;;;20.13;;
73650;SDS011;61944;52.538;6.108;2022-10-17T18:50:12;29.58;;;18.80;;
73650;SDS011;61944;52.538;6.108;2022-10-17T18:52:37;28.90;;;18.45;;
73650;SDS011;61944;52.538;6.108;2022-10-17T18:55:04;26.02;;;17.42;;
73650;SDS011;61944;52.538;6.108;2022-10-17T18:57:30;32.45;;;17.48;;
73650;SDS011;61944;52.538;6.108;2022-10-17T18:59:55;22.83;;;16.17;;
73650;SDS011;61944;52.538;6.108;2022-10-17T19:02:20;23.48;;;15.52;;
73650;SDS011;61944;52.538;6.108;2022-10-17T19:04:45;23.23;;;15.48;;
73650;SDS011;61944;52.538;6.108;2022-10-17T19:07:11;26.00;;;15.27;;
73650;SDS011;61944;52.538;6.108;2022-10-17T19:09:36;21.13;;;13.98;;
73650;SDS011;61944;52.538;6.108;2022-10-17T19:12:01;24.55;;;15.60;;
73650;SDS011;61944;52.538;6.108;2022-10-17T19:14:27;29.33;;;16.40;;
73650;SDS011;61944;52.538;6.108;2022-10-17T19:16:54;21.30;;;14.25;;
73650;SDS011;61944;52.538;6.108;2022-10-17T19:19:22;23.40;;;15.43;;
73650;SDS011;61944;52.538;6.108;2022-10-17T19:21:49;29.48;;;16.27;;
73650;SDS011;61944;52.538;6.108;2022-10-17T19:24:16;19.05;;;13.48;;
73650;SDS011;61944;52.538;6.108;2022-10-17T19:26:44;39.03;;;22.77;;
73650;SDS011;61944;52.538;6.108;2022-10-17T19:29:13;23.77;;;14.65;;
73650;SDS011;61944;52.538;6.108;2022-10-17T19:31:40;23.92;;;14.77;;
73650;SDS011;61944;52.538;6.108;2022-10-17T19:34:05;23.33;;;13.70;;
73650;SDS011;61944;52.538;6.108;2022-10-17T19:36:31;23.13;;;14.80;;
73650;SDS011;61944;52.538;6.108;2022-10-17T19:38:58;20.80;;;13.63;;
73650;SDS011;61944;52.538;6.108;2022-10-17T19:41:24;24.83;;;14.57;;
73650;SDS011;61944;52.538;6.108;2022-10-17T19:43:49;22.25;;;13.60;;
73650;SDS011;61944;52.538;6.108;2022-10-17T19:46:16;29.00;;;16.67;;
73650;SDS011;61944;52.538;6.108;2022-10-17T19:48:44;20.05;;;14.15;;
73650;SDS011;61944;52.538;6.108;2022-10-17T19:51:11;20.92;;;13.48;;
73650;SDS011;61944;52.538;6.108;2022-10-17T19:53:37;20.13;;;12.85;;
73650;SDS011;61944;52.538;6.108;2022-10-17T19:56:03;23.27;;;13.07;;
73650;SDS011;61944;52.538;6.108;2022-10-17T19:58:29;28.20;;;13.68;;
73650;SDS011;61944;52.538;6.108;2022-10-17T20:00:57;23.90;;;14.60;;
73650;SDS011;61944;52.538;6.108;2022-10-17T20:03:26;23.17;;;13.77;;
73650;SDS011;61944;52.538;6.108;2022-10-17T20:05:52;18.42;;;11.63;;
73650;SDS011;61944;52.538;6.108;2022-10-17T20:08:17;19.58;;;12.55;;
73650;SDS011;61944;52.538;6.108;2022-10-17T20:10:43;17.73;;;12.43;;
73650;SDS011;61944;52.538;6.108;2022-10-17T20:13:09;19.15;;;13.05;;
73650;SDS011;61944;52.538;6.108;2022-10-17T20:15:34;20.40;;;13.35;;
73650;SDS011;61944;52.538;6.108;2022-10-17T20:18:00;20.42;;;12.15;;
73650;SDS011;61944;52.538;6.108;2022-10-17T20:20:26;24.40;;;14.38;;
73650;SDS011;61944;52.538;6.108;2022-10-17T20:22:52;21.10;;;12.00;;
73650;SDS011;61944;52.538;6.108;2022-10-17T20:25:17;20.77;;;14.73;;
73650;SDS011;61944;52.538;6.108;2022-10-17T20:27:43;25.88;;;15.05;;
73650;SDS011;61944;52.538;6.108;2022-10-17T20:30:09;18.88;;;13.07;;
73650;SDS011;61944;52.538;6.108;2022-10-17T20:32:34;28.50;;;16.23;;
73650;SDS011;61944;52.538;6.108;2022-10-17T20:35:01;18.98;;;11.63;;
73650;SDS011;61944;52.538;6.108;2022-10-17T20:37:27;27.88;;;16.35;;
73650;SDS011;61944;52.538;6.108;2022-10-17T20:39:52;25.23;;;13.75;;
73650;SDS011;61944;52.538;6.108;2022-10-17T20:42:17;26.33;;;15.18;;
73650;SDS011;61944;52.538;6.108;2022-10-17T20:44:45;21.52;;;14.55;;
73650;SDS011;61944;52.538;6.108;2022-10-17T20:47:10;32.53;;;16.65;;
73650;SDS011;61944;52.538;6.108;2022-10-17T20:49:36;21.73;;;13.35;;
73650;SDS011;61944;52.538;6.108;2022-10-17T20:52:01;18.48;;;12.45;;
73650;SDS011;61944;52.538;6.108;2022-10-17T20:54:26;21.10;;;13.45;;